Terminal Aerodrome Forecast
Issued by NWS

Home | Current Version | Previous Version | Text Only | Print | Product List | Glossary On
Versions: 1 2 3 4 5 6 7 8 9 10 11 12 13 14 15 16 17 18 19 20 21
740
FTAK31 PAJN 251903 AAA
TAFAWG
TAF AMD
PAWG 251903Z 2519/2618 VRB05KT P6SM VCSH FEW001 BKN040
     FM252100 30005KT P6SM FEW030
     FM261600 14010KT 3SM -SN BR OVC030
      AMD LTD TO CLD VIS AND WIND 2607/2615=

USA.gov is the U.S. government's official web portal to all federal, state and local government web resources and services.